sensor_id;sensor_type;location;lat;lon;timestamp;pressure;altitude;pressure_sealevel;temperature;humidity
70011;BME280;59543;37.950;-122.338;2023-08-07T00:00:55;101168.44;;;22.29;56.66
70011;BME280;59543;37.950;-122.338;2023-08-07T00:03:21;101165.63;;;22.55;56.30
70011;BME280;59543;37.950;-122.338;2023-08-07T00:05:48;101162.84;;;21.97;57.74
70011;BME280;59543;37.950;-122.338;2023-08-07T00:08:14;101156.13;;;21.73;58.36
70011;BME280;59543;37.950;-122.338;2023-08-07T00:10:40;101155.84;;;22.01;57.53
70011;BME280;59543;37.950;-122.338;2023-08-07T00:13:07;101165.38;;;21.72;58.46
70011;BME280;59543;37.950;-122.338;2023-08-07T00:15:33;101163.06;;;21.82;58.65
70011;BME280;59543;37.950;-122.338;2023-08-07T00:18:00;101165.38;;;21.72;58.67
70011;BME280;59543;37.950;-122.338;2023-08-07T00:20:26;101172.13;;;21.76;58.38
70011;BME280;59543;37.950;-122.338;2023-08-07T00:22:52;101160.78;;;21.46;59.64
70011;BME280;59543;37.950;-122.338;2023-08-07T00:25:18;101167.50;;;21.50;59.53
70011;BME280;59543;37.950;-122.338;2023-08-07T00:27:45;101160.31;;;21.29;60.29
70011;BME280;59543;37.950;-122.338;2023-08-07T00:30:11;101155.25;;;21.19;60.22
70011;BME280;59543;37.950;-122.338;2023-08-07T00:32:38;101162.69;;;21.52;59.73
70011;BME280;59543;37.950;-122.338;2023-08-07T00:35:05;101160.59;;;21.54;59.37
70011;BME280;59543;37.950;-122.338;2023-08-07T00:37:34;101157.16;;;21.72;59.96
70011;BME280;59543;37.950;-122.338;2023-08-07T00:40:00;101158.63;;;21.28;60.08
70011;BME280;59543;37.950;-122.338;2023-08-07T00:42:26;101147.31;;;21.38;60.43
70011;BME280;59543;37.950;-122.338;2023-08-07T00:44:53;101149.16;;;21.04;60.74
70011;BME280;59543;37.950;-122.338;2023-08-07T00:47:19;101146.00;;;21.07;61.41
70011;BME280;59543;37.950;-122.338;2023-08-07T00:49:47;101158.00;;;21.13;61.17
70011;BME280;59543;37.950;-122.338;2023-08-07T00:52:14;101158.06;;;21.39;60.38
70011;BME280;59543;37.950;-122.338;2023-08-07T00:54:40;101157.34;;;21.04;60.80
70011;BME280;59543;37.950;-122.338;2023-08-07T00:57:11;101153.78;;;21.10;61.75
70011;BME280;59543;37.950;-122.338;2023-08-07T00:59:39;101149.69;;;20.66;61.92
70011;BME280;59543;37.950;-122.338;2023-08-07T01:02:06;101142.78;;;20.70;62.17
70011;BME280;59543;37.950;-122.338;2023-08-07T01:04:33;101148.59;;;20.54;63.03
70011;BME280;59543;37.950;-122.338;2023-08-07T01:06:59;101150.88;;;20.50;62.68
70011;BME280;59543;37.950;-122.338;2023-08-07T01:09:26;101150.44;;;20.47;63.31
70011;BME280;59543;37.950;-122.338;2023-08-07T01:14:52;101144.72;;;20.00;64.82
70011;BME280;59543;37.950;-122.338;2023-08-07T01:17:22;101144.25;;;19.62;66.17
70011;BME280;59543;37.950;-122.338;2023-08-07T01:19:51;101152.78;;;19.74;66.13
70011;BME280;59543;37.950;-122.338;2023-08-07T01:22:18;101149.44;;;19.78;66.54
70011;BME280;59543;37.950;-122.338;2023-08-07T01:24:50;101137.88;;;19.27;67.94
70011;BME280;59543;37.950;-122.338;2023-08-07T01:35:16;101145.31;;;19.11;69.16
70011;BME280;59543;37.950;-122.338;2023-08-07T01:37:45;101140.41;;;19.07;69.33
70011;BME280;59543;37.950;-122.338;2023-08-07T01:40:13;101141.44;;;19.27;69.03
70011;BME280;59543;37.950;-122.338;2023-08-07T01:42:40;101133.78;;;19.16;69.14
70011;BME280;59543;37.950;-122.338;2023-08-07T01:45:07;101131.47;;;19.13;69.04
70011;BME280;59543;37.950;-122.338;2023-08-07T01:47:34;101132.25;;;19.07;69.33
70011;BME280;59543;37.950;-122.338;2023-08-07T01:50:00;101134.53;;;19.03;69.97
70011;BME280;59543;37.950;-122.338;2023-08-07T01:52:27;101131.22;;;18.86;69.74
70011;BME280;59543;37.950;-122.338;2023-08-07T01:54:53;101127.91;;;19.12;69.34
70011;BME280;59543;37.950;-122.338;2023-08-07T01:57:20;101125.44;;;18.75;70.48
70011;BME280;59543;37.950;-122.338;2023-08-07T01:59:46;101129.41;;;18.93;70.29
70011;BME280;59543;37.950;-122.338;2023-08-07T02:02:12;101133.03;;;19.01;69.60
70011;BME280;59543;37.950;-122.338;2023-08-07T02:04:38;101134.06;;;18.78;70.31
70011;BME280;59543;37.950;-122.338;2023-08-07T02:07:05;101135.34;;;18.82;70.56
70011;BME280;59543;37.950;-122.338;2023-08-07T02:09:31;101142.03;;;18.65;71.34
70011;BME280;59543;37.950;-122.338;2023-08-07T02:11:57;101135.97;;;18.63;71.08
70011;BME280;59543;37.950;-122.338;2023-08-07T02:14:27;101131.72;;;18.75;71.02
70011;BME280;59543;37.950;-122.338;2023-08-07T02:16:53;101144.53;;;18.60;71.78
70011;BME280;59543;37.950;-122.338;2023-08-07T02:19:20;101140.69;;;18.54;71.87
70011;BME280;59543;37.950;-122.338;2023-08-07T02:21:46;101141.59;;;18.76;71.00
70011;BME280;59543;37.950;-122.338;2023-08-07T02:24:12;101142.63;;;18.60;71.24
70011;BME280;59543;37.950;-122.338;2023-08-07T02:26:39;101142.97;;;18.72;71.36
70011;BME280;59543;37.950;-122.338;2023-08-07T02:29:05;101146.47;;;18.66;71.12
70011;BME280;59543;37.950;-122.338;2023-08-07T02:31:34;101146.25;;;18.46;72.31
70011;BME280;59543;37.950;-122.338;2023-08-07T02:34:01;101148.47;;;18.57;71.59
70011;BME280;59543;37.950;-122.338;2023-08-07T02:36:27;101151.00;;;18.59;72.02
70011;BME280;59543;37.950;-122.338;2023-08-07T02:38:53;101157.06;;;18.39;72.61
70011;BME280;59543;37.950;-122.338;2023-08-07T02:41:19;101154.44;;;18.31;72.85
70011;BME280;59543;37.950;-122.338;2023-08-07T02:43:46;101160.56;;;18.03;73.81
70011;BME280;59543;37.950;-122.338;2023-08-07T02:46:12;101160.63;;;17.95;74.47
70011;BME280;59543;37.950;-122.338;2023-08-07T02:48:39;101162.34;;;17.81;75.33
70011;BME280;59543;37.950;-122.338;2023-08-07T02:51:05;101158.94;;;17.79;75.84
70011;BME280;59543;37.950;-122.338;2023-08-07T02:53:32;101153.44;;;17.88;75.33
70011;BME280;59543;37.950;-122.338;2023-08-07T02:55:58;101153.13;;;17.82;75.93
70011;BME280;59543;37.950;-122.338;2023-08-07T02:58:24;101163.88;;;17.76;75.79
70011;BME280;59543;37.950;-122.338;2023-08-07T03:00:50;101156.38;;;17.63;76.70
70011;BME280;59543;37.950;-122.338;2023-08-07T03:03:17;101155.84;;;17.45;77.53
70011;BME280;59543;37.950;-122.338;2023-08-07T03:05:50;101160.06;;;17.47;77.53
70011;BME280;59543;37.950;-122.338;2023-08-07T03:08:16;101159.44;;;17.45;77.94
70011;BME280;59543;37.950;-122.338;2023-08-07T03:10:53;101157.34;;;17.47;77.47
70011;BME280;59543;37.950;-122.338;2023-08-07T03:13:22;101161.47;;;17.43;77.59
70011;BME280;59543;37.950;-122.338;2023-08-07T03:15:48;101153.84;;;17.38;77.95
70011;BME280;59543;37.950;-122.338;2023-08-07T03:18:18;101164.00;;;17.45;78.07
70011;BME280;59543;37.950;-122.338;2023-08-07T03:20:45;101158.25;;;17.25;78.87
70011;BME280;59543;37.950;-122.338;2023-08-07T03:23:11;101154.19;;;17.21;78.63
70011;BME280;59543;37.950;-122.338;2023-08-07T03:25:37;101154.06;;;17.14;79.03
70011;BME280;59543;37.950;-122.338;2023-08-07T03:28:04;101153.91;;;17.16;78.71
70011;BME280;59543;37.950;-122.338;2023-08-07T03:30:30;101150.94;;;17.25;78.30
70011;BME280;59543;37.950;-122.338;2023-08-07T03:32:56;101145.06;;;17.13;78.89
70011;BME280;59543;37.950;-122.338;2023-08-07T03:35:26;101149.97;;;17.18;78.53
70011;BME280;59543;37.950;-122.338;2023-08-07T03:37:52;101147.78;;;17.13;78.97
70011;BME280;59543;37.950;-122.338;2023-08-07T03:40:18;101152.19;;;17.14;79.15
70011;BME280;59543;37.950;-122.338;2023-08-07T03:42:44;101153.53;;;17.19;78.82
70011;BME280;59543;37.950;-122.338;2023-08-07T03:45:10;101155.91;;;17.22;78.85
70011;BME280;59543;37.950;-122.338;2023-08-07T03:47:37;101147.91;;;17.20;78.85
70011;BME280;59543;37.950;-122.338;2023-08-07T03:50:03;101150.16;;;17.17;78.91
70011;BME280;59543;37.950;-122.338;2023-08-07T03:52:29;101152.19;;;17.14;78.90
70011;BME280;59543;37.950;-122.338;2023-08-07T03:54:56;101158.97;;;17.19;79.14
70011;BME280;59543;37.950;-122.338;2023-08-07T03:57:22;101162.69;;;17.18;78.94
70011;BME280;59543;37.950;-122.338;2023-08-07T03:59:48;101165.50;;;17.09;79.33
70011;BME280;59543;37.950;-122.338;2023-08-07T04:02:14;101174.97;;;17.13;78.97
70011;BME280;59543;37.950;-122.338;2023-08-07T04:04:41;101176.75;;;17.06;79.28
70011;BME280;59543;37.950;-122.338;2023-08-07T04:07:07;101183.91;;;16.99;79.57
70011;BME280;59543;37.950;-122.338;2023-08-07T04:09:33;101180.03;;;16.94;79.16
70011;BME280;59543;37.950;-122.338;2023-08-07T04:11:59;101181.56;;;16.96;79.05
70011;BME280;59543;37.950;-122.338;2023-08-07T04:14:26;101183.19;;;17.05;78.80
70011;BME280;59543;37.950;-122.338;2023-08-07T04:16:52;101184.34;;;17.11;78.82
70011;BME280;59543;37.950;-122.338;2023-08-07T04:19:18;101176.84;;;17.13;78.59
70011;BME280;59543;37.950;-122.338;2023-08-07T04:21:44;101175.69;;;17.07;78.95
70011;BME280;59543;37.950;-122.338;2023-08-07T04:24:11;101174.88;;;17.07;78.98
70011;BME280;59543;37.950;-122.338;2023-08-07T04:26:37;101178.63;;;17.06;79.56
70011;BME280;59543;37.950;-122.338;2023-08-07T04:29:04;101190.09;;;17.16;79.18
70011;BME280;59543;37.950;-122.338;2023-08-07T04:31:30;101186.16;;;17.19;79.49
70011;BME280;59543;37.950;-122.338;2023-08-07T04:33:57;101191.22;;;17.22;79.73
70011;BME280;59543;37.950;-122.338;2023-08-07T04:36:24;101185.31;;;17.18;79.97
70011;BME280;59543;37.950;-122.338;2023-08-07T04:38:50;101195.16;;;17.19;80.23
70011;BME280;59543;37.950;-122.338;2023-08-07T04:41:16;101197.16;;;17.25;79.80
70011;BME280;59543;37.950;-122.338;2023-08-07T04:43:43;101193.66;;;17.17;80.61
70011;BME280;59543;37.950;-122.338;2023-08-07T04:46:09;101197.88;;;17.19;80.55
70011;BME280;59543;37.950;-122.338;2023-08-07T04:48:36;101194.31;;;17.19;80.51
70011;BME280;59543;37.950;-122.338;2023-08-07T04:51:03;101196.72;;;17.13;81.37
70011;BME280;59543;37.950;-122.338;2023-08-07T04:53:29;101195.16;;;17.19;81.55
70011;BME280;59543;37.950;-122.338;2023-08-07T04:55:55;101200.97;;;17.16;81.51
70011;BME280;59543;37.950;-122.338;2023-08-07T04:58:22;101197.41;;;17.16;81.31
70011;BME280;59543;37.950;-122.338;2023-08-07T05:00:48;101204.88;;;17.13;81.70
70011;BME280;59543;37.950;-122.338;2023-08-07T05:03:20;101207.91;;;17.19;81.04
70011;BME280;59543;37.950;-122.338;2023-08-07T05:05:46;101197.75;;;17.12;81.07
70011;BME280;59543;37.950;-122.338;2023-08-07T05:08:12;101200.88;;;17.01;81.53
70011;BME280;59543;37.950;-122.338;2023-08-07T05:10:38;101196.78;;;17.05;81.07
70011;BME280;59543;37.950;-122.338;2023-08-07T05:13:05;101197.13;;;17.02;80.70
70011;BME280;59543;37.950;-122.338;2023-08-07T05:15:31;101203.88;;;16.83;82.01
70011;BME280;59543;37.950;-122.338;2023-08-07T05:17:57;101203.84;;;16.91;81.64
70011;BME280;59543;37.950;-122.338;2023-08-07T05:20:24;101183.97;;;16.91;81.94
70011;BME280;59543;37.950;-122.338;2023-08-07T05:22:50;101193.50;;;16.87;82.72
70011;BME280;59543;37.950;-122.338;2023-08-07T05:25:16;101197.56;;;16.91;82.72
70011;BME280;59543;37.950;-122.338;2023-08-07T05:27:44;101196.41;;;16.85;83.72
70011;BME280;59543;37.950;-122.338;2023-08-07T05:30:12;101195.13;;;16.96;83.07
70011;BME280;59543;37.950;-122.338;2023-08-07T05:32:38;101195.22;;;16.88;83.69
70011;BME280;59543;37.950;-122.338;2023-08-07T05:35:05;101197.59;;;16.83;84.53
70011;BME280;59543;37.950;-122.338;2023-08-07T05:37:35;101185.34;;;16.87;84.24
70011;BME280;59543;37.950;-122.338;2023-08-07T05:40:02;101193.34;;;16.88;84.79
70011;BME280;59543;37.950;-122.338;2023-08-07T05:42:28;101193.69;;;16.85;84.90
70011;BME280;59543;37.950;-122.338;2023-08-07T05:44:54;101190.13;;;16.85;84.90
70011;BME280;59543;37.950;-122.338;2023-08-07T05:47:21;101198.56;;;16.90;84.69
70011;BME280;59543;37.950;-122.338;2023-08-07T05:49:47;101191.25;;;16.90;84.54
70011;BME280;59543;37.950;-122.338;2023-08-07T05:52:14;101193.34;;;16.88;84.36
70011;BME280;59543;37.950;-122.338;2023-08-07T05:54:41;101197.56;;;16.91;84.44
70011;BME280;59543;37.950;-122.338;2023-08-07T05:57:07;101193.84;;;16.84;84.66
70011;BME280;59543;37.950;-122.338;2023-08-07T05:59:33;101197.72;;;16.89;84.39
70011;BME280;59543;37.950;-122.338;2023-08-07T06:02:00;101198.28;;;16.85;84.17
70011;BME280;59543;37.950;-122.338;2023-08-07T06:04:26;101192.38;;;16.73;84.43
70011;BME280;59543;37.950;-122.338;2023-08-07T06:06:52;101201.03;;;16.68;84.75
70011;BME280;59543;37.950;-122.338;2023-08-07T06:09:19;101200.25;;;16.60;85.12
70011;BME280;59543;37.950;-122.338;2023-08-07T06:11:48;101198.66;;;16.74;84.10
70011;BME280;59543;37.950;-122.338;2023-08-07T06:14:14;101190.84;;;16.71;84.03
70011;BME280;59543;37.950;-122.338;2023-08-07T06:16:40;101202.25;;;16.66;84.42
70011;BME280;59543;37.950;-122.338;2023-08-07T06:19:09;101190.22;;;16.60;84.64
70011;BME280;59543;37.950;-122.338;2023-08-07T06:21:35;101193.16;;;16.51;85.58
70011;BME280;59543;37.950;-122.338;2023-08-07T06:24:01;101198.72;;;16.57;85.10
70011;BME280;59543;37.950;-122.338;2023-08-07T06:26:28;101205.41;;;16.46;85.78
70011;BME280;59543;37.950;-122.338;2023-08-07T06:28:54;101202.50;;;16.48;85.78
70011;BME280;59543;37.950;-122.338;2023-08-07T06:31:21;101199.06;;;16.54;84.98
70011;BME280;59543;37.950;-122.338;2023-08-07T06:33:47;101203.88;;;16.44;85.83
70011;BME280;59543;37.950;-122.338;2023-08-07T06:36:13;101202.69;;;16.46;85.63
70011;BME280;59543;37.950;-122.338;2023-08-07T06:38:39;101209.44;;;16.51;85.01
70011;BME280;59543;37.950;-122.338;2023-08-07T06:41:06;101203.56;;;16.39;85.91
70011;BME280;59543;37.950;-122.338;2023-08-07T06:43:32;101212.38;;;16.41;86.15
70011;BME280;59543;37.950;-122.338;2023-08-07T06:45:59;101207.78;;;16.41;86.29
70011;BME280;59543;37.950;-122.338;2023-08-07T06:48:25;101200.81;;;16.47;86.10
70011;BME280;59543;37.950;-122.338;2023-08-07T06:50:51;101202.72;;;16.30;87.20
70011;BME280;59543;37.950;-122.338;2023-08-07T06:53:18;101209.69;;;16.33;86.69
70011;BME280;59543;37.950;-122.338;2023-08-07T06:55:45;101207.97;;;16.40;86.65
70011;BME280;59543;37.950;-122.338;2023-08-07T06:58:11;101209.38;;;16.28;87.26
70011;BME280;59543;37.950;-122.338;2023-08-07T07:00:38;101215.13;;;16.33;86.93
70011;BME280;59543;37.950;-122.338;2023-08-07T07:03:04;101221.22;;;16.35;86.64
70011;BME280;59543;37.950;-122.338;2023-08-07T07:05:32;101212.25;;;16.26;87.17
70011;BME280;59543;37.950;-122.338;2023-08-07T07:07:58;101219.91;;;16.31;86.95
70011;BME280;59543;37.950;-122.338;2023-08-07T07:10:25;101217.19;;;16.22;87.23
70011;BME280;59543;37.950;-122.338;2023-08-07T07:12:51;101222.28;;;16.17;87.50
70011;BME280;59543;37.950;-122.338;2023-08-07T07:15:18;101222.47;;;16.16;88.15
70011;BME280;59543;37.950;-122.338;2023-08-07T07:17:44;101219.09;;;16.14;88.58
70011;BME280;59543;37.950;-122.338;2023-08-07T07:20:10;101224.31;;;16.15;88.76
70011;BME280;59543;37.950;-122.338;2023-08-07T07:22:37;101225.00;;;16.17;88.58
70011;BME280;59543;37.950;-122.338;2023-08-07T07:25:04;101222.63;;;16.22;88.28
70011;BME280;59543;37.950;-122.338;2023-08-07T07:27:31;101221.59;;;16.23;87.89
70011;BME280;59543;37.950;-122.338;2023-08-07T07:29:57;101224.16;;;16.25;87.76
70011;BME280;59543;37.950;-122.338;2023-08-07T07:32:23;101221.44;;;16.17;87.91
70011;BME280;59543;37.950;-122.338;2023-08-07T07:34:51;101233.34;;;16.08;88.27
70011;BME280;59543;37.950;-122.338;2023-08-07T07:37:18;101226.72;;;16.10;88.03
70011;BME280;59543;37.950;-122.338;2023-08-07T07:39:44;101224.03;;;16.02;88.47
70011;BME280;59543;37.950;-122.338;2023-08-07T07:42:10;101221.16;;;15.95;88.97
70011;BME280;59543;37.950;-122.338;2023-08-07T07:44:36;101221.84;;;15.97;88.86
70011;BME280;59543;37.950;-122.338;2023-08-07T07:47:04;101223.88;;;15.87;89.51
70011;BME280;59543;37.950;-122.338;2023-08-07T07:49:32;101223.38;;;15.92;89.40
70011;BME280;59543;37.950;-122.338;2023-08-07T07:51:59;101224.06;;;15.77;90.63
70011;BME280;59543;37.950;-122.338;2023-08-07T07:54:25;101221.84;;;15.89;89.48
70011;BME280;59543;37.950;-122.338;2023-08-07T07:56:51;101216.44;;;15.81;90.09
70011;BME280;59543;37.950;-122.338;2023-08-07T07:59:18;101217.28;;;15.65;90.80
70011;BME280;59543;37.950;-122.338;2023-08-07T08:01:44;101223.38;;;15.75;90.09
70011;BME280;59543;37.950;-122.338;2023-08-07T08:04:10;101222.69;;;15.65;90.98
70011;BME280;59543;37.950;-122.338;2023-08-07T08:06:37;101227.63;;;15.78;90.02
70011;BME280;59543;37.950;-122.338;2023-08-07T08:09:03;101223.38;;;15.75;90.06
70011;BME280;59543;37.950;-122.338;2023-08-07T08:11:31;101215.41;;;15.58;90.89
70011;BME280;59543;37.950;-122.338;2023-08-07T08:13:57;101214.38;;;15.67;89.99
70011;BME280;59543;37.950;-122.338;2023-08-07T08:16:23;101214.56;;;15.65;89.93
70011;BME280;59543;37.950;-122.338;2023-08-07T08:18:50;101213.53;;;15.58;90.39
70011;BME280;59543;37.950;-122.338;2023-08-07T08:21:16;101211.00;;;15.48;91.09
70011;BME280;59543;37.950;-122.338;2023-08-07T08:23:42;101206.59;;;15.47;91.23
70011;BME280;59543;37.950;-122.338;2023-08-07T08:26:08;101210.50;;;15.37;91.84
70011;BME280;59543;37.950;-122.338;2023-08-07T08:28:34;101211.50;;;15.36;91.80
70011;BME280;59543;37.950;-122.338;2023-08-07T08:31:01;101203.88;;;15.31;92.11
70011;BME280;59543;37.950;-122.338;2023-08-07T08:33:27;101201.16;;;15.31;92.05
70011;BME280;59543;37.950;-122.338;2023-08-07T08:35:53;101193.06;;;15.23;92.68
70011;BME280;59543;37.950;-122.338;2023-08-07T08:38:20;101199.31;;;15.15;93.36
70011;BME280;59543;37.950;-122.338;2023-08-07T08:40:48;101197.44;;;15.16;93.25
70011;BME280;59543;37.950;-122.338;2023-08-07T08:43:17;101199.28;;;15.07;93.74
70011;BME280;59543;37.950;-122.338;2023-08-07T08:45:44;101195.25;;;15.11;93.47
70011;BME280;59543;37.950;-122.338;2023-08-07T08:48:14;101194.88;;;15.06;94.15
70011;BME280;59543;37.950;-122.338;2023-08-07T08:50:44;101183.69;;;15.01;94.30
70011;BME280;59543;37.950;-122.338;2023-08-07T08:53:11;101195.56;;;15.08;94.31
70011;BME280;59543;37.950;-122.338;2023-08-07T08:55:39;101194.53;;;15.01;94.75
70011;BME280;59543;37.950;-122.338;2023-08-07T08:58:08;101194.88;;;15.06;94.63
70011;BME280;59543;37.950;-122.338;2023-08-07T09:00:35;101190.81;;;14.94;95.42
70011;BME280;59543;37.950;-122.338;2023-08-07T09:03:02;101188.94;;;14.94;95.49
70011;BME280;59543;37.950;-122.338;2023-08-07T09:05:28;101190.81;;;15.02;94.83
70011;BME280;59543;37.950;-122.338;2023-08-07T09:07:55;101186.75;;;14.98;95.38
70011;BME280;59543;37.950;-122.338;2023-08-07T09:10:22;101191.66;;;14.94;95.46
70011;BME280;59543;37.950;-122.338;2023-08-07T09:13:03;101195.56;;;15.00;95.30
70011;BME280;59543;37.950;-122.338;2023-08-07T09:15:32;101186.25;;;15.02;95.07
70011;BME280;59543;37.950;-122.338;2023-08-07T09:17:59;101177.59;;;15.07;94.89
70011;BME280;59543;37.950;-122.338;2023-08-07T09:20:26;101175.06;;;15.05;94.99
70011;BME280;59543;37.950;-122.338;2023-08-07T09:22:54;101172.84;;;15.01;95.06
70011;BME280;59543;37.950;-122.338;2023-08-07T09:25:28;101178.78;;;14.96;95.31
70011;BME280;59543;37.950;-122.338;2023-08-07T09:27:55;101172.31;;;14.89;95.96
70011;BME280;59543;37.950;-122.338;2023-08-07T09:30:29;101170.13;;;14.84;96.54
70011;BME280;59543;37.950;-122.338;2023-08-07T09:32:59;101166.94;;;14.97;95.55
70011;BME280;59543;37.950;-122.338;2023-08-07T09:35:26;101171.00;;;14.93;95.90
70011;BME280;59543;37.950;-122.338;2023-08-07T09:37:52;101172.34;;;14.81;96.62
70011;BME280;59543;37.950;-122.338;2023-08-07T09:40:19;101169.78;;;14.79;96.47
70011;BME280;59543;37.950;-122.338;2023-08-07T09:42:50;101167.75;;;14.81;96.79
70011;BME280;59543;37.950;-122.338;2023-08-07T09:45:22;101169.97;;;14.78;97.04
70011;BME280;59543;37.950;-122.338;2023-08-07T09:47:59;101164.53;;;14.78;96.80
70011;BME280;59543;37.950;-122.338;2023-08-07T09:50:25;101161.31;;;14.74;97.15
70011;BME280;59543;37.950;-122.338;2023-08-07T09:52:53;101163.69;;;14.69;97.78
70011;BME280;59543;37.950;-122.338;2023-08-07T09:55:21;101160.28;;;14.67;97.66
70011;BME280;59543;37.950;-122.338;2023-08-07T09:57:48;101166.88;;;14.64;98.13
70011;BME280;59543;37.950;-122.338;2023-08-07T10:00:16;101155.91;;;14.74;97.37
70011;BME280;59543;37.950;-122.338;2023-08-07T10:02:46;101156.75;;;14.75;97.48
70011;BME280;59543;37.950;-122.338;2023-08-07T10:05:13;101157.59;;;14.75;97.74
70011;BME280;59543;37.950;-122.338;2023-08-07T10:07:40;101158.25;;;14.69;97.66
70011;BME280;59543;37.950;-122.338;2023-08-07T10:10:08;101155.38;;;14.71;98.25
70011;BME280;59543;37.950;-122.338;2023-08-07T10:12:37;101152.84;;;14.69;98.02
70011;BME280;59543;37.950;-122.338;2023-08-07T10:15:04;101156.41;;;14.70;98.00
70011;BME280;59543;37.950;-122.338;2023-08-07T10:17:32;101164.34;;;14.63;97.60
70011;BME280;59543;37.950;-122.338;2023-08-07T10:19:59;101163.97;;;14.58;99.19
70011;BME280;59543;37.950;-122.338;2023-08-07T10:22:27;101167.19;;;14.53;100.00
70011;BME280;59543;37.950;-122.338;2023-08-07T10:24:57;101172.09;;;14.58;99.71
70011;BME280;59543;37.950;-122.338;2023-08-07T10:27:25;101171.44;;;14.64;99.80
70011;BME280;59543;37.950;-122.338;2023-08-07T10:29:54;101181.56;;;14.62;100.00
70011;BME280;59543;37.950;-122.338;2023-08-07T10:32:25;101184.47;;;14.60;100.00
70011;BME280;59543;37.950;-122.338;2023-08-07T10:34:52;101179.56;;;14.64;100.00
70011;BME280;59543;37.950;-122.338;2023-08-07T10:37:42;101172.34;;;14.81;98.81
70011;BME280;59543;37.950;-122.338;2023-08-07T10:40:12;101171.63;;;14.62;99.77
70011;BME280;59543;37.950;-122.338;2023-08-07T10:45:22;101180.41;;;14.56;100.00
70011;BME280;59543;37.950;-122.338;2023-08-07T10:48:06;101166.69;;;14.58;99.34
70011;BME280;59543;37.950;-122.338;2023-08-07T10:53:19;101145.22;;;14.56;100.00
70011;BME280;59543;37.950;-122.338;2023-08-07T10:55:47;101133.47;;;14.48;100.00
70011;BME280;59543;37.950;-122.338;2023-08-07T10:58:29;101144.44;;;14.46;100.00
70011;BME280;59543;37.950;-122.338;2023-08-07T11:01:21;101138.56;;;14.51;100.00
70011;BME280;59543;37.950;-122.338;2023-08-07T11:03:51;101143.66;;;14.54;100.00
70011;BME280;59543;37.950;-122.338;2023-08-07T11:06:21;101147.38;;;14.53;100.00
70011;BME280;59543;37.950;-122.338;2023-08-07T11:08:49;101142.31;;;14.58;100.00
70011;BME280;59543;37.950;-122.338;2023-08-07T11:11:16;101142.50;;;14.56;100.00
70011;BME280;59543;37.950;-122.338;2023-08-07T11:13:42;101145.03;;;14.58;100.00
70011;BME280;59543;37.950;-122.338;2023-08-07T11:16:08;101147.38;;;14.53;100.00
70011;BME280;59543;37.950;-122.338;2023-08-07T11:18:35;101148.06;;;14.55;100.00
70011;BME280;59543;37.950;-122.338;2023-08-07T11:21:07;101151.78;;;14.62;100.00
70011;BME280;59543;37.950;-122.338;2023-08-07T11:23:33;101157.03;;;14.55;100.00
70011;BME280;59543;37.950;-122.338;2023-08-07T11:26:01;101154.81;;;14.51;100.00
70011;BME280;59543;37.950;-122.338;2023-08-07T11:28:28;101158.50;;;14.50;100.00
70011;BME280;59543;37.950;-122.338;2023-08-07T11:30:56;101156.88;;;14.57;100.00
70011;BME280;59543;37.950;-122.338;2023-08-07T11:33:26;101151.13;;;14.60;100.00
70011;BME280;59543;37.950;-122.338;2023-08-07T11:35:52;101159.06;;;14.53;100.00
70011;BME280;59543;37.950;-122.338;2023-08-07T11:38:39;101149.09;;;14.54;100.00
70011;BME280;59543;37.950;-122.338;2023-08-07T11:41:07;101146.88;;;14.57;100.00
70011;BME280;59543;37.950;-122.338;2023-08-07T11:43:34;101162.28;;;14.57;100.00
70011;BME280;59543;37.950;-122.338;2023-08-07T11:46:02;101157.38;;;14.60;100.00
70011;BME280;59543;37.950;-122.338;2023-08-07T11:48:31;101156.53;;;14.52;100.00
70011;BME280;59543;37.950;-122.338;2023-08-07T11:50:58;101153.47;;;14.55;100.00
70011;BME280;59543;37.950;-122.338;2023-08-07T11:53:26;101149.59;;;14.57;100.00
70011;BME280;59543;37.950;-122.338;2023-08-07T11:55:55;101143.34;;;14.57;100.00
70011;BME280;59543;37.950;-122.338;2023-08-07T11:58:23;101148.69;;;14.49;100.00
70011;BME280;59543;37.950;-122.338;2023-08-07T12:00:50;101144.13;;;14.49;100.00
70011;BME280;59543;37.950;-122.338;2023-08-07T12:03:33;101144.31;;;14.48;100.00
70011;BME280;59543;37.950;-122.338;2023-08-07T12:06:04;101143.13;;;14.50;100.00
70011;BME280;59543;37.950;-122.338;2023-08-07T12:08:41;101140.97;;;14.54;100.00
70011;BME280;59543;37.950;-122.338;2023-08-07T12:11:12;101134.03;;;14.51;100.00
70011;BME280;59543;37.950;-122.338;2023-08-07T12:13:43;101139.88;;;14.47;100.00
70011;BME280;59543;37.950;-122.338;2023-08-07T12:16:11;101135.66;;;14.44;100.00
70011;BME280;59543;37.950;-122.338;2023-08-07T12:18:50;101140.56;;;14.49;100.00
70011;BME280;59543;37.950;-122.338;2023-08-07T12:21:22;101139.56;;;14.41;100.00
70011;BME280;59543;37.950;-122.338;2023-08-07T12:23:51;101136.00;;;14.41;100.00
70011;BME280;59543;37.950;-122.338;2023-08-07T12:26:20;101139.00;;;14.38;100.00
70011;BME280;59543;37.950;-122.338;2023-08-07T12:28:47;101138.19;;;14.46;100.00
70011;BME280;59543;37.950;-122.338;2023-08-07T12:31:13;101142.25;;;14.41;100.00
70011;BME280;59543;37.950;-122.338;2023-08-07T12:33:39;101146.81;;;14.41;100.00
70011;BME280;59543;37.950;-122.338;2023-08-07T12:36:06;101143.47;;;14.47;100.00